Bridgeport Valley, California Weather observations

Data are for 10 minute period ending at time listed.
 Day   Time   Solar   Ave.   Ave.  Ave.  Vector  Max.   Baro.   Total    
  of    of     Rad.   Air    Rel.  Wind   Wind   Wind  Press.  Precip.   
Year   Day            Temp.  Hum.  Speed  Dir.   Gust                    
2015   (PST)  Kw/m2    F      %     mph   deg.    mph    mb.     in.     
-------------------------------------------------------------------------
  64   17:30   0.04   47.4    25    9.7    14    13.4   808.5    0.00 
  64   17:40   0.02   44.5    29    9.3    17    12.3   808.5    0.00 
  64   17:50   0.01   42.7    32    8.6    19    12.3   808.6    0.00 
  64   18:00   0.01   41.1    35    8.4    19    10.9   808.6    0.00 
  64   18:10   0.00   40.0    37    7.6    28    10.7   808.7    0.00 
  64   18:20   0.00   37.6    41    6.4    12     8.3   808.8    0.00 
  64   18:30   0.00   36.3    40    5.2    15     7.1   808.9    0.00 
  64   18:40   0.00   33.2    44    4.0   323     5.0   809.1    0.00 
  64   18:50   0.00   32.6    48    3.3   275     5.2   809.1    0.00 
  64   19:00   0.00   31.5    50    6.2   306     8.0   809.1    0.00 
  64   19:10   0.00   31.2    52    5.6   349     9.3   809.1    0.00 
  64   19:20   0.00   31.5    48    2.2    26     4.2   809.2    0.00 
  64   19:30   0.00   29.9    50    1.5   347     2.9   809.4    0.00 
  64   19:40   0.00   32.1    46    2.0   351     3.9   809.5    0.00 
  64   19:50   0.00   32.0    48    3.0   349     4.7   809.6    0.00 
  64   20:00   0.00   32.9    47    1.6     6     3.1   809.7    0.00 
  64   20:10   0.00   30.4    52    1.9   130     4.2   809.8    0.00 
  64   20:20   0.00   29.6    53    2.3   206     3.7   809.9    0.00 
  64   20:30   0.00   30.6    50    2.7   175     3.9   810.0    0.00 
  64   20:40   0.00   28.1    56    2.2   184     2.9   810.1    0.00 
  64   20:50   0.00   26.9    59    1.9   187     3.3   810.3    0.00 
  64   21:00   0.00   24.7    64    2.2   191     3.1   810.3    0.00 
  64   21:10   0.00   23.9    66    3.6   155     4.9   810.3    0.00 
  64   21:20   0.00   22.3    69    2.1   292     4.4   810.6    0.00 
  64   21:30   0.00   24.9    64    1.2   311     3.3   810.7    0.00 
  64   21:40   0.00   26.8    58    1.8   228     2.7   810.8    0.00 
  64   21:50   0.00   27.0    56    4.2   177     5.0   810.9    0.00 
  64   22:00   0.00   25.6    59    5.7   168     7.2   810.9    0.00 
  64   22:10   0.00   23.3    66    3.9   200     5.8   810.9    0.00 
  64   22:20   0.00   18.6    75    2.8   229     4.1   810.9    0.00 
  64   22:30   0.00   19.2    76    2.9   242     3.9   810.9    0.00 
  64   22:40   0.00   20.8    71    2.2   256     3.0   810.9    0.00 
  64   22:50   0.00   19.6    72    2.9   259     3.9   810.9    0.00 
  64   23:00   0.00   22.5    67    1.8   166     3.4   811.0    0.00 
  64   23:10   0.00   22.1    66    2.3   234     4.7   811.1    0.00 
  64   23:20   0.00   23.6    63    2.8   210     4.2   811.1    0.00 
  64   23:30   0.00   21.2    67    3.1   226     4.6   811.1    0.00 
  64   23:40   0.00   20.6    70    3.1   212     5.0   811.0    0.00 
  64   23:50   0.00   19.1    73    3.4   215     5.0   811.0    0.00 
  65    0:00   0.00   19.1    74    2.0   204     3.6   811.0    0.00 
  65    0:10   0.00   17.3    77    2.6   235     4.2   811.0    0.00 
  65    0:20   0.00   16.2    80    2.0   248     3.7   811.0    0.00 
  65    0:30   0.00   16.3    79    2.7   227     3.3   811.0    0.00 
  65    0:40   0.00   16.8    79    2.1   228     2.8   811.0    0.00 
  65    0:50   0.00   18.0    74    3.1   222     4.8   811.0    0.00 
  65    1:00   0.00   17.3    77    2.4   233     3.3   811.0    0.00 
  65    1:10   0.00   17.9    74    2.2   179     3.6   811.1    0.00 
  65    1:20   0.00   16.3    77    2.1   230     4.4   811.1    0.00 
  65    1:30   0.00   17.4    78    3.5   200     4.0   811.2    0.00 
  65    1:40   0.00   19.9    69    3.2   172     3.8   811.2    0.00 
  65    1:50   0.00   15.4    80    3.8   199     4.5   811.1    0.00 
  65    2:00   0.00   14.5    81    2.4   192     4.3   811.1    0.00 
  65    2:10   0.00   12.5    86    1.9   246     3.6   811.1    0.00 
  65    2:20   0.00   12.5    86    2.5   268     3.2   811.0    0.00 
  65    2:30   0.00   15.7    81    2.2   230     3.1   811.0    0.00 
  65    2:40   0.00   13.6    78    2.0   237     2.7   811.0    0.00 
  65    2:50   0.00   15.4    83    2.6   218     3.2   810.9    0.00 
  65    3:00   0.00   15.0    76    1.4   233     2.6   810.8    0.00 
  65    3:10   0.00   13.7    81    1.6   213     2.5   810.8    0.00 
  65    3:20   0.00   13.7    83    2.4   190     3.2   810.8    0.00 
  65    3:30   0.00   13.2    81    2.1   214     3.0   810.8    0.00 
  65    3:40   0.00   10.4    84    1.5   247     2.6   810.7    0.00 
  65    3:50   0.00   10.6    85    1.6   260     2.5   810.7    0.00 
  65    4:00   0.00   10.2    85    2.0   208     2.5   810.7    0.00 
  65    4:10   0.00    9.7    86    1.2   227     1.8   810.7    0.00 
  65    4:20   0.00    8.0    84    2.4   254     3.3   810.7    0.00 
  65    4:30   0.00    7.6    87    1.8   256     3.1   810.7    0.00 
  65    4:40   0.00    8.6    86    2.4   246     3.9   810.8    0.00 
  65    4:50   0.00    9.6    86    3.1   236     4.1   810.8    0.00 
  65    5:00   0.00   10.3    89    3.2   217     3.7   810.9    0.00 
  65    5:10   0.00    9.3    88    2.7   244     3.1   811.0    0.00 
  65    5:20   0.00   10.9    89    2.3   210     2.7   811.0    0.00 
  65    5:30   0.00   10.5    88    1.0   214     2.2   811.1    0.00 
  65    5:40   0.00    9.5    87    2.1   229     3.0   811.1    0.00 
  65    5:50   0.00    8.0    87    3.9   253     4.5   811.1    0.00 
  65    6:00   0.00    7.7    84    2.1   265     4.5   811.1    0.00 
  65    6:10   0.00    6.5    85    0.6   265     1.9   811.1    0.00 
  65    6:20   0.00    6.3    86    0.2   203     1.5   811.1    0.00 
  65    6:30   0.01    6.3    86    0.3   344     1.4   811.2    0.00 
  65    6:40   0.01    8.5    88    0.0     0     0.0   811.2    0.00 
  65    6:50   0.05    9.8    88    0.4   146     1.5   811.3    0.00 
  65    7:00   0.08   10.6    83    2.0   220     3.0   811.4    0.00 
  65    7:10   0.11   12.2    85    1.0   215     1.7   811.5    0.00 
  65    7:20   0.14   16.4    80    0.3   199     1.4   811.6    0.00 
  65    7:30   0.17   19.8    74    0.1   226     1.1   811.6    0.00 
  65    7:40   0.20   21.2    74    0.1   275     0.9   811.7    0.00 
  65    7:50   0.24   24.3    69    0.0     7     0.9   811.6    0.00 
  65    8:00   0.27   27.3    60    0.3    10     1.4   811.6    0.00 
  65    8:10   0.31   28.1    59    0.7    41     2.3   811.5    0.00 
  65    8:20   0.34   28.7    58    1.3   113     2.9   811.4    0.00 
  65    8:30   0.38   30.0    57    0.8    95     2.6   811.3    0.00 
  65    8:40   0.41   31.7    55    0.2   158     1.6   811.2    0.00 
  65    8:50   0.45   33.2    51    1.0   195     2.3   811.1    0.00 
  65    9:00   0.48   33.5    51    1.2    21     2.9   811.0    0.00 
  65    9:10   0.51   34.1    44    1.4   313     3.3   811.1    0.00 
  65    9:20   0.54   36.2    40    1.1   208     2.6   811.1    0.00 
  65    9:30   0.57   38.3    37    1.1   239     3.9   811.1    0.00 
  65    9:40   0.60   40.1    36    1.2   202     3.1   811.2    0.00 
  65    9:50   0.62   41.3    34    1.7   202     5.3   811.2    0.00 
  65   10:00   0.65   41.8    34    1.4    96     4.0   811.1    0.00 
  65   10:10   0.67   42.2    33    1.8     5     3.2   811.1    0.00 
  65   10:20   0.69   44.6    31    1.4   140     3.4   811.1    0.00 
  65   10:30   0.71   45.7    30    1.9   129     4.7   811.0    0.00 
  65   10:40   0.73   46.9    28    1.8   124     4.0   811.0    0.00 
  65   10:50   0.75   48.4    25    1.0   120     3.4   810.9    0.00 
  65   11:00   0.76   50.7    22    1.9   182     4.7   810.8    0.00 
  65   11:10   0.77   51.3    21    2.5    50     4.7   810.6    0.00 
  65   11:20   0.78   51.5    19    1.9   353     6.0   810.5    0.00 
  65   11:30   0.79   52.9    18    1.5     2     3.9   810.4    0.00 
  65   11:40   0.80   53.0    17    3.0   351     5.8   810.2    0.00 
  65   11:50   0.80   53.9    17    3.7    23     6.1   810.2    0.00 
  65   12:00   0.81   54.3    17    3.6    80     6.2   810.0    0.00 
  65   12:10   0.81   54.9    16    3.7    67     7.7   809.8    0.00 
  65   12:20   0.81   55.1    16    4.0    64     8.4   809.7    0.00 
  65   12:30   0.81   55.0    16    4.5    66     7.9   809.6    0.00 
  65   12:40   0.80   55.4    15    2.1   316     4.8   809.5    0.00 
  65   12:50   0.80   56.7    15    2.7   268     7.2   809.3    0.00 
  65   13:00   0.79   57.2    16    5.2    44     9.6   809.0    0.00 
  65   13:10   0.78   56.8    16    5.3    33    11.2   808.9    0.00 
  65   13:20   0.77   57.8    15    4.5    41    13.2   808.7    0.00 
  65   13:30   0.76   58.0    14    2.0    64     5.3   808.6    0.00 
  65   13:40   0.74   58.2    14    3.6    40     8.8   808.4    0.00 
  65   13:50   0.72   58.4    15    5.9    43    12.4   808.2    0.00 
  65   14:00   0.71   58.3    14    4.0    23     8.9   808.1    0.00 
  65   14:10   0.69   58.6    14    5.0    43     8.8   807.9    0.00 
  65   14:20   0.67   59.2    14    6.2    18    11.6   807.8    0.00 
  65   14:30   0.64   58.9    14    5.8    34    10.4   807.8    0.00 
  65   14:40   0.62   58.9    14    5.5   353    13.1   807.7    0.00 
  65   14:50   0.59   59.1    14    7.9    15    13.4   807.7    0.00 
  65   15:00   0.57   58.7    13   10.6    20    15.9   807.7    0.00 
  65   15:10   0.54   59.0    13   12.6    17    18.1   807.6    0.00 
  65   15:20   0.51   58.4    13   12.9    10    16.8   807.6    0.00 
  65   15:30   0.48   58.1    13   12.3     2    17.5   807.6    0.00 
  65   15:40   0.45   58.1    12   11.8     2    17.2   807.6    0.00 
  65   15:50   0.41   57.9    13   12.4     2    17.0   807.6    0.00 
  65   16:00   0.38   58.0    13   12.1     4    16.5   807.5    0.00 
  65   16:10   0.34   57.5    13   12.4    14    17.4   807.5    0.00 
  65   16:20   0.31   57.0    14   13.6    12    19.1   807.4    0.00 
  65   16:30   0.27   56.2    14   13.6    16    18.1   807.4    0.00 
  65   16:40   0.24   55.7    15   12.9    20    17.9   807.4    0.00 
  65   16:50   0.20   54.9    16   12.2    15    16.7   807.4    0.00 
  65   17:00   0.17   54.0    17   12.2    14    15.8   807.5    0.00 
  65   17:10   0.14   52.8    19   11.4    16    16.5   807.5    0.00 
  65   17:20   0.11   51.4    20   10.8    14    15.3   807.5    0.00 

Return to Bridgeport Valley graphs page.


Western Regional Climate Center,wrcc@dri.edu